Time;durP1;ratioP1;P1;durP2;ratioP2;P2;SDS_P1;SDS_P2;PMS_P1;PMS_P2;Temp;Humidity;BMP_temperature;BMP_pressure;BME280_temperature;BME280_humidity;BME280_pressure;Samples;Min_cycle;Max_cycle;Signal;HPM_P1;HPM_P2
2023/08/17 19:21:08;;;;;;;8.25;7.55;;;;;;;;;;5095563;28;20208;-71
2023/08/17 19:23:34;;;;;;;7.82;6.97;;;;;;;;;;5103030;28;20906;-71
2023/08/17 19:26:01;;;;;;;8.70;7.80;;;;;;;;;;5103717;28;20210;-71
2023/08/17 19:28:27;;;;;;;10.30;7.65;;;;;;;;;;5103215;28;20210;-72
2023/08/17 19:30:53;;;;;;;10.38;8.32;;;;;;;;;;5100704;28;20207;-72
2023/08/17 19:33:20;;;;;;;9.68;8.23;;;;;;;;;;5100081;28;20596;-72
2023/08/17 19:35:46;;;;;;;8.40;7.70;;;;;;;;;;5103491;28;20245;-72
2023/08/17 19:38:14;;;;;;;9.55;8.18;;;;;;;;;;5087895;28;20215;-72
2023/08/17 19:40:44;;;;;;;9.90;7.72;;;;;;;;;;5081624;28;20227;-72
2023/08/17 19:43:10;;;;;;;8.80;8.02;;;;;;;;;;5084802;28;20313;-72
2023/08/17 19:45:36;;;;;;;8.02;7.32;;;;;;;;;;5085100;28;20218;-72
2023/08/17 19:48:03;;;;;;;9.68;7.68;;;;;;;;;;5084856;28;20691;-71
2023/08/17 19:50:30;;;;;;;8.65;7.88;;;;;;;;;;5082604;28;20217;-72
2023/08/17 19:52:56;;;;;;;7.75;7.00;;;;;;;;;;5096690;28;20226;-72
2023/08/17 19:55:24;;;;;;;8.07;7.32;;;;;;;;;;5103052;28;20211;-72
2023/08/17 19:57:50;;;;;;;8.90;7.35;;;;;;;;;;5103273;28;20215;-72
2023/08/17 20:00:17;;;;;;;8.93;7.97;;;;;;;;;;5103031;28;20207;-73
2023/08/17 20:02:43;;;;;;;8.15;7.32;;;;;;;;;;5102457;28;21030;-72
2023/08/17 20:05:10;;;;;;;7.80;7.03;;;;;;;;;;5102771;28;20207;-72
2023/08/17 20:07:36;;;;;;;9.70;6.80;;;;;;;;;;5099377;28;20203;-72
2023/08/17 20:10:03;;;;;;;7.65;7.13;;;;;;;;;;5093904;28;20238;-73
2023/08/17 20:12:31;;;;;;;7.55;6.80;;;;;;;;;;5102687;28;20222;-73
2023/08/17 20:14:57;;;;;;;6.97;6.28;;;;;;;;;;5103179;28;20335;-73
2023/08/17 20:17:23;;;;;;;9.05;6.78;;;;;;;;;;5102590;28;20219;-74
2023/08/17 20:19:49;;;;;;;6.45;5.95;;;;;;;;;;5102841;28;20207;-76
2023/08/17 20:22:16;;;;;;;7.47;6.07;;;;;;;;;;5101995;28;20234;-75
2023/08/17 20:24:43;;;;;;;6.32;5.78;;;;;;;;;;5102100;28;20299;-74
2023/08/17 20:27:09;;;;;;;7.47;5.85;;;;;;;;;;5100596;28;20930;-75
2023/08/17 20:29:36;;;;;;;6.68;5.60;;;;;;;;;;5088414;28;20211;-74
2023/08/17 20:32:03;;;;;;;9.50;5.55;;;;;;;;;;5088539;28;20231;-75
2023/08/17 20:34:29;;;;;;;5.63;5.20;;;;;;;;;;5087671;28;20884;-75
2023/08/17 20:36:56;;;;;;;5.93;5.47;;;;;;;;;;5088580;28;20230;-75
2023/08/17 20:39:22;;;;;;;6.35;5.82;;;;;;;;;;5088302;28;20209;-73
2023/08/17 20:41:48;;;;;;;7.65;5.82;;;;;;;;;;5087873;28;20207;-73
2023/08/17 20:44:15;;;;;;;7.75;5.68;;;;;;;;;;5088274;28;20207;-73
2023/08/17 20:46:42;;;;;;;7.68;6.50;;;;;;;;;;5080762;28;20207;-72
2023/08/17 20:49:08;;;;;;;8.30;6.28;;;;;;;;;;5088386;28;20569;-72
2023/08/17 20:51:35;;;;;;;6.53;5.93;;;;;;;;;;5087957;28;20210;-74
2023/08/17 20:54:02;;;;;;;7.10;6.55;;;;;;;;;;5088475;28;20199;-75
2023/08/17 20:56:28;;;;;;;6.72;6.13;;;;;;;;;;5088109;28;20273;-74
2023/08/17 20:58:55;;;;;;;7.10;6.45;;;;;;;;;;5089042;28;20583;-73
2023/08/17 21:01:21;;;;;;;9.48;7.25;;;;;;;;;;5089154;28;20752;-73
2023/08/17 21:03:49;;;;;;;7.82;7.07;;;;;;;;;;5071508;28;20234;-73
2023/08/17 21:06:15;;;;;;;8.20;7.38;;;;;;;;;;5078030;28;20203;-73
2023/08/17 21:08:43;;;;;;;7.70;6.90;;;;;;;;;;5092082;28;20207;-73
2023/08/17 21:11:09;;;;;;;6.43;5.95;;;;;;;;;;5084304;28;20215;-72
2023/08/17 21:13:36;;;;;;;6.53;6.13;;;;;;;;;;5079173;28;20220;-72
2023/08/17 21:16:22;;;;;;;9.05;5.72;;;;;;;;;;5087721;28;20212;-72
2023/08/17 21:18:50;;;;;;;9.07;5.90;;;;;;;;;;5071406;28;20218;-73
2023/08/17 21:21:16;;;;;;;6.47;5.88;;;;;;;;;;5083089;28;20212;-72
2023/08/17 21:23:42;;;;;;;8.52;5.95;;;;;;;;;;5086808;28;20226;-74
2023/08/17 21:26:08;;;;;;;6.28;5.68;;;;;;;;;;5087030;28;20207;-74
2023/08/17 21:28:35;;;;;;;6.40;5.90;;;;;;;;;;5087173;28;20572;-74
2023/08/17 21:31:01;;;;;;;6.20;5.40;;;;;;;;;;5087907;28;20203;-73
2023/08/17 21:33:40;;;;;;;6.15;5.45;;;;;;;;;;5087778;28;20219;-73
2023/08/17 21:36:08;;;;;;;7.25;5.35;;;;;;;;;;5088868;28;20203;-73
2023/08/17 21:38:34;;;;;;;9.38;5.70;;;;;;;;;;5088770;28;20257;-73
2023/08/17 21:41:01;;;;;;;5.90;5.35;;;;;;;;;;5086781;28;20207;-72
2023/08/17 21:43:27;;;;;;;8.98;5.55;;;;;;;;;;5080237;28;20242;-73
2023/08/17 21:45:54;;;;;;;8.13;5.28;;;;;;;;;;5088014;28;20199;-73
2023/08/17 21:48:21;;;;;;;8.90;5.40;;;;;;;;;;5072352;28;20200;-73
2023/08/17 21:50:47;;;;;;;5.10;4.80;;;;;;;;;;5071407;28;20293;-73
2023/08/17 21:53:16;;;;;;;5.75;5.20;;;;;;;;;;5085592;28;20223;-73
2023/08/17 21:55:44;;;;;;;8.00;5.20;;;;;;;;;;5079503;28;20211;-72
2023/08/17 21:58:10;;;;;;;9.63;4.72;;;;;;;;;;5091860;28;20227;-72
2023/08/17 22:00:36;;;;;;;7.70;4.78;;;;;;;;;;5091943;28;20200;-72
2023/08/17 22:03:04;;;;;;;5.10;4.70;;;;;;;;;;5091726;28;20294;-72
2023/08/17 22:05:30;;;;;;;10.20;5.07;;;;;;;;;;5092203;28;20199;-72
2023/08/17 22:07:57;;;;;;;10.43;4.45;;;;;;;;;;5091792;28;20659;-72
2023/08/17 22:10:24;;;;;;;5.20;4.55;;;;;;;;;;5091771;28;20206;-72
2023/08/17 22:12:51;;;;;;;5.03;4.28;;;;;;;;;;5091420;28;20571;-72
2023/08/17 22:15:17;;;;;;;4.40;4.00;;;;;;;;;;5091726;28;20693;-72
2023/08/17 22:17:44;;;;;;;6.78;4.72;;;;;;;;;;5091491;28;20215;-72
2023/08/17 22:20:11;;;;;;;7.80;4.88;;;;;;;;;;5088183;28;20191;-72
2023/08/17 22:22:37;;;;;;;5.03;4.53;;;;;;;;;;5091337;28;20305;-73
2023/08/17 22:25:04;;;;;;;5.75;3.85;;;;;;;;;;5091734;28;20203;-73
2023/08/17 22:27:32;;;;;;;5.90;4.30;;;;;;;;;;5091377;28;20195;-72
2023/08/17 22:29:58;;;;;;;7.63;4.15;;;;;;;;;;5091771;28;20200;-72
2023/08/17 22:32:24;;;;;;;6.63;3.72;;;;;;;;;;5091093;28;20215;-73
2023/08/17 22:34:51;;;;;;;4.53;4.13;;;;;;;;;;5091590;28;20199;-72
2023/08/17 22:37:17;;;;;;;5.72;3.97;;;;;;;;;;5091108;28;20713;-72
2023/08/17 22:39:43;;;;;;;6.55;3.70;;;;;;;;;;5091390;28;20199;-73
2023/08/17 22:42:10;;;;;;;7.30;4.00;;;;;;;;;;5090958;28;20223;-72
2023/08/17 22:44:37;;;;;;;5.28;3.88;;;;;;;;;;5091332;28;20202;-72
2023/08/17 22:47:04;;;;;;;4.43;3.78;;;;;;;;;;5091411;28;20191;-73
2023/08/17 22:49:31;;;;;;;4.07;3.40;;;;;;;;;;5091781;28;20292;-73
2023/08/17 22:51:59;;;;;;;4.28;3.70;;;;;;;;;;5090378;28;20713;-73
2023/08/17 22:54:25;;;;;;;4.22;3.83;;;;;;;;;;5089549;28;20196;-73
2023/08/17 22:56:51;;;;;;;6.80;3.58;;;;;;;;;;5089852;28;20219;-73
2023/08/17 22:59:18;;;;;;;7.05;3.85;;;;;;;;;;5089926;28;20221;-73
2023/08/17 23:01:46;;;;;;;5.32;3.80;;;;;;;;;;5089367;28;20579;-73
2023/08/17 23:04:12;;;;;;;7.78;3.72;;;;;;;;;;5090170;28;20210;-73
2023/08/17 23:06:38;;;;;;;7.47;3.80;;;;;;;;;;5090085;28;20199;-73
2023/08/17 23:09:05;;;;;;;6.80;3.88;;;;;;;;;;5092210;28;20278;-73
2023/08/17 23:11:32;;;;;;;5.78;3.83;;;;;;;;;;5091228;28;20681;-73
2023/08/17 23:13:58;;;;;;;5.25;3.63;;;;;;;;;;5091883;28;20199;-73
2023/08/17 23:16:24;;;;;;;7.85;3.70;;;;;;;;;;5091761;28;20208;-73
2023/08/17 23:18:52;;;;;;;3.75;3.45;;;;;;;;;;5075667;28;20215;-73
2023/08/17 23:21:18;;;;;;;4.47;3.65;;;;;;;;;;5093757;28;20191;-72
2023/08/17 23:23:44;;;;;;;7.47;3.95;;;;;;;;;;5091045;28;20230;-72
2023/08/17 23:26:11;;;;;;;5.78;3.40;;;;;;;;;;5091502;28;20682;-73
2023/08/17 23:28:37;;;;;;;4.35;3.78;;;;;;;;;;5091606;28;20310;-72
2023/08/17 23:31:03;;;;;;;9.70;3.60;;;;;;;;;;5091600;28;20200;-72
2023/08/17 23:33:30;;;;;;;4.47;3.90;;;;;;;;;;5091197;28;20215;-72
2023/08/17 23:35:58;;;;;;;5.68;3.70;;;;;;;;;;5091636;28;20196;-73
2023/08/17 23:38:24;;;;;;;4.43;3.10;;;;;;;;;;5091395;28;20223;-72
2023/08/17 23:40:50;;;;;;;6.97;4.00;;;;;;;;;;5075292;28;20208;-72
2023/08/17 23:43:17;;;;;;;3.65;3.35;;;;;;;;;;5091208;28;20237;-72
2023/08/17 23:45:43;;;;;;;3.90;3.53;;;;;;;;;;5091343;28;20272;-72
2023/08/17 23:48:09;;;;;;;9.13;3.72;;;;;;;;;;5091280;28;20199;-73
2023/08/17 23:50:36;;;;;;;4.55;3.88;;;;;;;;;;5091069;28;20195;-73
2023/08/17 23:53:03;;;;;;;4.43;3.47;;;;;;;;;;5090863;28;20223;-72
2023/08/17 23:55:30;;;;;;;3.90;3.35;;;;;;;;;;5091487;28;20196;-72
2023/08/17 23:57:57;;;;;;;4.57;3.50;;;;;;;;;;5091475;28;20534;-72
